createdAt,value
2018-05-18T00:01:49.799Z,99.90
2018-05-18T00:04:18.746Z,99.90
2018-05-18T00:06:47.653Z,99.90
2018-05-18T00:09:17.308Z,99.90
2018-05-18T00:11:46.278Z,99.90
2018-05-18T00:14:15.175Z,99.90
2018-05-18T00:16:44.059Z,99.90
2018-05-18T00:19:12.988Z,99.90
2018-05-18T00:21:41.895Z,99.90
2018-05-18T00:24:11.642Z,99.90
2018-05-18T00:26:40.688Z,99.90
2018-05-18T00:29:09.568Z,99.90
2018-05-18T00:31:38.471Z,99.90
2018-05-18T00:34:08.250Z,99.90
2018-05-18T00:36:37.153Z,99.90
2018-05-18T00:39:06.098Z,99.90
2018-05-18T00:41:35.892Z,99.90
2018-05-18T00:44:05.589Z,99.90
2018-05-18T00:46:35.281Z,99.90
2018-05-18T00:49:04.273Z,99.90
2018-05-18T00:51:34.152Z,99.90
2018-05-18T00:54:03.050Z,99.90
2018-05-18T00:56:32.387Z,99.90
2018-05-18T00:59:01.423Z,99.90
2018-05-18T01:01:30.335Z,99.90
2018-05-18T01:03:59.311Z,99.90
2018-05-18T01:06:28.367Z,99.90
2018-05-18T01:08:57.280Z,99.90
2018-05-18T01:11:26.333Z,99.90
2018-05-18T01:13:56.031Z,99.90
2018-05-18T01:16:25.716Z,99.90
2018-05-18T01:18:54.637Z,99.90
2018-05-18T01:21:24.339Z,99.90
2018-05-18T01:23:53.424Z,99.90
2018-05-18T01:26:23.977Z,99.90
2018-05-18T01:28:53.645Z,99.90
2018-05-18T01:31:22.560Z,99.90
2018-05-18T01:33:51.815Z,99.90
2018-05-18T01:36:20.781Z,99.90
2018-05-18T01:38:49.691Z,99.90
2018-05-18T01:41:18.723Z,99.90
2018-05-18T01:43:47.689Z,99.90
2018-05-18T01:46:16.566Z,99.90
2018-05-18T01:48:45.538Z,99.90
2018-05-18T01:51:14.491Z,99.90
2018-05-18T01:53:43.480Z,99.90
2018-05-18T01:56:12.444Z,99.90
2018-05-18T01:58:41.383Z,99.90
2018-05-18T02:01:10.318Z,99.90
2018-05-18T02:03:39.262Z,99.90
2018-05-18T02:06:08.230Z,99.90
2018-05-18T02:08:37.172Z,99.90
2018-05-18T02:11:06.067Z,99.90
2018-05-18T02:13:35.010Z,99.90
2018-05-18T02:16:03.910Z,99.90
2018-05-18T02:18:33.666Z,99.90
2018-05-18T02:21:02.587Z,99.90
2018-05-18T02:23:31.540Z,99.90
2018-05-18T02:26:00.492Z,99.90
2018-05-18T02:28:30.167Z,99.90
2018-05-18T02:30:59.112Z,99.90
2018-05-18T02:33:28.036Z,99.90
2018-05-18T02:35:56.931Z,99.90
2018-05-18T02:38:26.111Z,99.90
2018-05-18T02:40:55.105Z,99.90
2018-05-18T02:43:24.066Z,99.90
2018-05-18T02:45:53.075Z,99.90
2018-05-18T02:48:21.981Z,99.90
2018-05-18T02:50:50.975Z,99.90
2018-05-18T02:53:19.858Z,99.90
2018-05-18T02:55:48.934Z,99.90
2018-05-18T02:58:17.911Z,99.90
2018-05-18T03:00:46.794Z,99.90
2018-05-18T03:03:15.719Z,99.90
2018-05-18T03:05:44.618Z,99.90
2018-05-18T03:08:13.514Z,99.90
2018-05-18T03:10:42.417Z,99.90
2018-05-18T03:13:11.300Z,99.90
2018-05-18T03:15:40.219Z,99.90
2018-05-18T03:18:09.889Z,99.90
2018-05-18T03:20:38.798Z,99.90
2018-05-18T03:23:07.709Z,99.90
2018-05-18T03:25:36.644Z,99.90
2018-05-18T03:28:05.550Z,99.90
2018-05-18T03:30:34.520Z,99.90
2018-05-18T03:33:03.415Z,99.90
2018-05-18T03:35:32.416Z,99.90
2018-05-18T03:38:01.387Z,99.90
2018-05-18T03:40:30.340Z,99.90
2018-05-18T03:42:59.208Z,99.90
2018-05-18T03:45:28.130Z,99.90
2018-05-18T03:47:57.838Z,99.90
2018-05-18T03:50:27.475Z,99.90
2018-05-18T03:52:56.366Z,99.90
2018-05-18T03:55:25.296Z,99.90
2018-05-18T03:57:54.997Z,99.90
2018-05-18T04:00:23.943Z,99.90
2018-05-18T04:03:04.849Z,99.90
2018-05-18T04:05:45.796Z,99.90
2018-05-18T04:08:26.667Z,99.90
2018-05-18T04:10:55.576Z,99.90
2018-05-18T04:13:24.555Z,99.90
2018-05-18T04:15:53.451Z,99.90
2018-05-18T04:18:22.360Z,99.90
2018-05-18T04:20:51.248Z,99.90
2018-05-18T04:23:20.173Z,99.90
2018-05-18T04:25:49.056Z,99.90
2018-05-18T04:28:17.976Z,99.90
2018-05-18T04:30:46.911Z,99.90
2018-05-18T04:33:16.560Z,99.90
2018-05-18T04:35:45.453Z,99.90
2018-05-18T04:38:14.455Z,99.90
2018-05-18T04:40:43.344Z,99.90
2018-05-18T04:43:12.303Z,99.90
2018-05-18T04:45:41.145Z,99.90
2018-05-18T04:48:10.064Z,99.90
2018-05-18T04:50:39.784Z,99.90
2018-05-18T04:53:08.718Z,99.90
2018-05-18T04:55:38.012Z,99.90
2018-05-18T04:58:06.881Z,99.90
2018-05-18T05:00:35.790Z,99.90
2018-05-18T05:03:04.705Z,99.90
2018-05-18T05:05:33.637Z,99.90
2018-05-18T05:08:02.503Z,99.90
2018-05-18T05:10:32.271Z,99.90
2018-05-18T05:13:01.153Z,99.90
2018-05-18T05:15:30.072Z,99.90
2018-05-18T05:17:59.228Z,99.90
2018-05-18T05:20:28.141Z,99.90
2018-05-18T05:22:57.056Z,99.90
2018-05-18T05:25:25.946Z,99.90
2018-05-18T05:27:55.615Z,99.90
2018-05-18T05:30:24.570Z,99.90
2018-05-18T05:32:53.413Z,99.90
2018-05-18T05:35:22.352Z,99.90
2018-05-18T05:37:51.250Z,99.90
2018-05-18T05:40:20.171Z,99.90
2018-05-18T05:42:49.357Z,99.90
2018-05-18T05:45:18.254Z,99.90
2018-05-18T05:47:47.376Z,99.90
2018-05-18T05:50:17.034Z,99.90
2018-05-18T05:52:46.021Z,99.90
2018-05-18T05:55:14.957Z,99.90
2018-05-18T05:57:43.824Z,99.90
2018-05-18T06:00:12.791Z,99.90
2018-05-18T06:02:41.687Z,99.90
2018-05-18T06:05:10.632Z,99.90
2018-05-18T06:07:39.547Z,99.90
2018-05-18T06:10:08.468Z,99.90
2018-05-18T06:12:37.407Z,99.90
2018-05-18T06:15:07.130Z,99.90
2018-05-18T06:17:36.815Z,99.90
2018-05-18T06:20:06.545Z,99.90
2018-05-18T06:22:35.370Z,99.90
2018-05-18T06:25:04.287Z,99.90
2018-05-18T06:27:34.786Z,99.90
2018-05-18T06:30:03.698Z,99.90
2018-05-18T06:32:32.671Z,99.90
2018-05-18T06:35:01.635Z,99.90
2018-05-18T06:37:30.490Z,99.80
2018-05-18T06:39:59.386Z,99.40
2018-05-18T06:42:29.096Z,99.10
2018-05-18T06:44:58.758Z,99.20
2018-05-18T06:47:27.747Z,99.20
2018-05-18T06:49:56.660Z,98.70
2018-05-18T06:52:25.573Z,98.90
2018-05-18T06:54:55.314Z,98.50
2018-05-18T06:57:24.234Z,98.50
2018-05-18T06:59:53.125Z,97.90
2018-05-18T07:02:22.045Z,96.90
2018-05-18T07:04:51.799Z,95.90
2018-05-18T07:07:20.711Z,95.90
2018-05-18T07:09:49.676Z,96.30
2018-05-18T07:12:18.563Z,95.40
2018-05-18T07:14:47.475Z,95.20
2018-05-18T07:17:16.386Z,95.40
2018-05-18T07:19:45.291Z,95.40
2018-05-18T07:22:14.234Z,94.60
2018-05-18T07:24:43.115Z,93.90
2018-05-18T07:27:12.114Z,93.20
2018-05-18T07:29:41.023Z,93.20
2018-05-18T07:32:09.911Z,92.60
2018-05-18T07:34:38.889Z,93.00
2018-05-18T07:37:07.771Z,93.30
2018-05-18T07:39:36.673Z,93.10
2018-05-18T07:42:05.603Z,92.70
2018-05-18T07:44:35.272Z,91.80
2018-05-18T07:47:04.272Z,91.80
2018-05-18T07:49:33.250Z,91.80
2018-05-18T07:52:02.244Z,91.60
2018-05-18T07:54:31.227Z,91.80
2018-05-18T07:57:00.120Z,90.60
2018-05-18T07:59:29.122Z,90.50
2018-05-18T08:01:57.916Z,90.20
2018-05-18T08:04:26.898Z,90.70
2018-05-18T08:06:55.870Z,91.30
2018-05-18T08:09:24.761Z,90.50
2018-05-18T08:11:53.698Z,91.20
2018-05-18T08:14:22.616Z,90.80
2018-05-18T08:16:52.360Z,90.70
2018-05-18T08:19:21.262Z,90.70
2018-05-18T08:21:50.256Z,90.20
2018-05-18T08:24:19.230Z,89.20
2018-05-18T08:29:59.555Z,88.00
2018-05-18T08:32:29.221Z,87.10
2018-05-18T08:34:58.118Z,87.10
2018-05-18T08:37:27.067Z,86.90
2018-05-18T08:39:55.974Z,86.90
2018-05-18T08:42:24.974Z,84.90
2018-05-18T08:44:53.870Z,84.10
2018-05-18T08:47:23.565Z,85.80
2018-05-18T08:49:52.489Z,85.80
2018-05-18T08:52:21.367Z,83.80
2018-05-18T08:54:50.339Z,84.00
2018-05-18T08:57:19.224Z,84.50
2018-05-18T08:59:48.257Z,83.80
2018-05-18T09:02:17.153Z,81.70
2018-05-18T09:04:46.035Z,83.00
2018-05-18T09:07:14.960Z,81.30
2018-05-18T09:09:43.847Z,82.70
2018-05-18T09:12:12.774Z,81.40
2018-05-18T09:14:41.687Z,80.60
2018-05-18T09:17:10.727Z,79.50
2018-05-18T09:19:39.523Z,79.50
2018-05-18T09:22:08.402Z,81.50
2018-05-18T09:24:37.328Z,77.90
2018-05-18T09:27:06.217Z,76.50
2018-05-18T09:29:35.130Z,75.90
2018-05-18T09:32:04.011Z,74.00
2018-05-18T09:34:32.935Z,73.80
2018-05-18T09:37:02.627Z,72.40
2018-05-18T09:39:31.519Z,72.40
2018-05-18T09:42:01.175Z,73.50
2018-05-18T09:44:30.089Z,73.50
2018-05-18T09:46:59.067Z,74.00
2018-05-18T09:49:27.964Z,73.30
2018-05-18T09:51:56.871Z,73.30
2018-05-18T09:54:26.033Z,72.30
2018-05-18T09:56:54.750Z,71.90
2018-05-18T09:59:23.639Z,72.80
2018-05-18T10:01:52.544Z,71.30
2018-05-18T10:04:22.214Z,66.90
2018-05-18T10:06:51.144Z,66.90
2018-05-18T10:09:20.821Z,65.70
2018-05-18T10:11:49.733Z,65.70
2018-05-18T10:14:19.408Z,66.50
2018-05-18T10:16:48.326Z,66.40
2018-05-18T10:19:18.019Z,67.70
2018-05-18T10:21:46.915Z,67.60
2018-05-18T10:24:15.797Z,67.20
2018-05-18T10:26:44.715Z,66.50
2018-05-18T10:29:13.593Z,65.70
2018-05-18T10:31:42.498Z,65.80
2018-05-18T10:34:12.179Z,70.90
2018-05-18T10:36:41.148Z,70.80
2018-05-18T10:39:10.058Z,68.30
2018-05-18T10:41:38.932Z,68.30
2018-05-18T10:44:07.904Z,65.20
2018-05-18T10:46:36.806Z,65.00
2018-05-18T10:49:05.730Z,63.40
2018-05-18T10:51:34.616Z,62.10
2018-05-18T10:54:04.296Z,61.20
2018-05-18T10:56:34.005Z,61.80
2018-05-18T10:59:02.954Z,61.70
2018-05-18T11:01:32.618Z,63.20
2018-05-18T11:04:01.531Z,63.20
2018-05-18T11:06:31.585Z,64.20
2018-05-18T11:09:00.499Z,64.20
2018-05-18T11:11:29.407Z,62.50
2018-05-18T11:13:58.361Z,61.50
2018-05-18T11:16:27.961Z,62.20
2018-05-18T11:18:56.888Z,62.20
2018-05-18T11:21:25.773Z,62.80
2018-05-18T11:23:54.715Z,62.70
2018-05-18T11:26:23.719Z,63.60
2018-05-18T11:28:52.541Z,64.10
2018-05-18T11:31:21.438Z,62.60
2018-05-18T11:33:50.335Z,61.10
2018-05-18T11:36:19.235Z,62.50
2018-05-18T11:38:48.921Z,61.10
2018-05-18T11:41:17.818Z,61.10
2018-05-18T11:43:46.815Z,59.80
2018-05-18T11:46:15.695Z,60.10
2018-05-18T11:48:44.687Z,58.40
2018-05-18T11:51:13.592Z,58.70
2018-05-18T11:53:43.263Z,58.30
2018-05-18T11:56:12.175Z,58.20
2018-05-18T11:58:41.145Z,57.40
2018-05-18T12:01:10.035Z,57.10
2018-05-18T12:03:38.932Z,58.60
2018-05-18T12:06:07.843Z,58.60
2018-05-18T12:08:37.617Z,58.10
2018-05-18T12:11:06.508Z,58.20
2018-05-18T12:13:35.411Z,59.70
2018-05-18T12:16:04.328Z,57.00
2018-05-18T12:18:33.205Z,58.70
2018-05-18T12:21:02.152Z,58.60
2018-05-18T12:23:31.054Z,57.90
2018-05-18T12:25:59.975Z,58.10
2018-05-18T12:28:28.848Z,57.50
2018-05-18T12:30:57.747Z,57.40
2018-05-18T12:33:26.678Z,58.30
2018-05-18T12:35:56.344Z,60.70
2018-05-18T12:38:25.334Z,60.70
2018-05-18T12:40:54.157Z,55.10
2018-05-18T12:43:23.821Z,51.90
2018-05-18T12:45:52.715Z,51.90
2018-05-18T12:48:21.690Z,52.90
2018-05-18T12:50:50.614Z,52.70
2018-05-18T12:53:19.499Z,51.50
2018-05-18T12:55:49.163Z,51.90
2018-05-18T12:58:18.162Z,51.90
2018-05-18T13:00:47.177Z,52.30
2018-05-18T13:03:16.053Z,52.20
2018-05-18T13:05:45.077Z,53.10
2018-05-18T13:08:14.105Z,55.70
2018-05-18T13:10:42.932Z,54.80
2018-05-18T13:13:11.831Z,52.20
2018-05-18T13:15:40.797Z,51.30
2018-05-18T13:18:09.695Z,50.30
2018-05-18T13:20:38.689Z,50.70
2018-05-18T13:23:07.591Z,51.30
2018-05-18T13:25:36.487Z,51.80
2018-05-18T13:28:05.379Z,50.70
2018-05-18T13:30:34.303Z,51.40
2018-05-18T13:33:03.968Z,50.20
2018-05-18T13:35:32.840Z,50.10
2018-05-18T13:38:01.762Z,49.60
2018-05-18T13:40:30.666Z,49.60
2018-05-18T13:43:00.334Z,49.00
2018-05-18T13:45:29.942Z,49.10
2018-05-18T13:47:58.840Z,48.30
2018-05-18T13:50:27.761Z,48.70
2018-05-18T13:52:57.440Z,49.60
2018-05-18T13:55:26.415Z,49.40
2018-05-18T13:57:55.524Z,48.90
2018-05-18T14:00:24.415Z,51.70
2018-05-18T14:02:53.418Z,47.80
2018-05-18T14:05:22.285Z,48.50
2018-05-18T14:07:51.181Z,48.30
2018-05-18T14:10:20.072Z,47.80
2018-05-18T14:12:48.984Z,47.60
2018-05-18T14:15:18.651Z,45.70
2018-05-18T14:17:47.560Z,45.70
2018-05-18T14:20:16.525Z,48.30
2018-05-18T14:22:45.428Z,46.00
2018-05-18T14:25:15.182Z,45.60
2018-05-18T14:27:44.847Z,45.50
2018-05-18T14:30:14.667Z,45.40
2018-05-18T14:32:43.569Z,46.30
2018-05-18T14:35:12.443Z,46.10
2018-05-18T14:37:42.880Z,45.60
2018-05-18T14:40:11.773Z,45.60
2018-05-18T14:42:41.447Z,45.70
2018-05-18T14:45:10.340Z,45.60
2018-05-18T14:47:39.253Z,44.70
2018-05-18T14:50:08.158Z,42.90
2018-05-18T14:52:37.806Z,38.90
2018-05-18T14:55:06.780Z,38.90
2018-05-18T14:57:35.684Z,38.40
2018-05-18T15:00:04.570Z,37.40
2018-05-18T15:02:33.479Z,36.10
2018-05-18T15:05:02.384Z,36.10
2018-05-18T15:07:31.317Z,35.80
2018-05-18T15:10:00.262Z,35.00
2018-05-18T15:12:29.196Z,33.50
2018-05-18T15:14:58.819Z,31.80
2018-05-18T15:17:27.731Z,31.80
2018-05-18T15:19:56.640Z,30.20
2018-05-18T15:22:25.527Z,29.30
2018-05-18T15:24:54.502Z,30.20
2018-05-18T15:27:24.094Z,28.40
2018-05-18T15:29:53.005Z,28.40
2018-05-18T15:32:21.998Z,28.40
2018-05-18T15:34:50.983Z,28.10
2018-05-18T15:37:19.970Z,28.10
2018-05-18T15:39:48.879Z,27.40
2018-05-18T15:42:17.840Z,27.00
2018-05-18T15:44:46.860Z,26.60
2018-05-18T15:47:15.751Z,26.10
2018-05-18T15:49:46.136Z,26.20
2018-05-18T15:52:15.084Z,26.10
2018-05-18T15:54:43.955Z,25.40
2018-05-18T15:57:12.861Z,24.90
2018-05-18T15:59:43.271Z,25.80
2018-05-18T16:02:12.159Z,25.80
2018-05-18T16:04:41.090Z,26.00
2018-05-18T16:07:10.833Z,25.80
2018-05-18T16:09:39.768Z,25.80
2018-05-18T16:12:10.190Z,25.90
2018-05-18T16:14:39.058Z,25.80
2018-05-18T16:17:07.993Z,25.90
2018-05-18T16:19:37.626Z,26.10
2018-05-18T16:22:06.503Z,26.00
2018-05-18T16:24:35.382Z,27.80
2018-05-18T16:27:04.278Z,27.90
2018-05-18T16:29:33.173Z,28.70
2018-05-18T16:32:02.058Z,30.20
2018-05-18T16:34:31.019Z,30.60
2018-05-18T16:36:59.891Z,32.10
2018-05-18T16:39:28.776Z,33.70
2018-05-18T16:41:57.672Z,34.80
2018-05-18T16:44:26.561Z,36.20
2018-05-18T16:46:55.483Z,36.90
2018-05-18T16:49:24.393Z,37.90
2018-05-18T16:51:53.266Z,38.20
2018-05-18T16:54:22.176Z,39.90
2018-05-18T16:56:51.027Z,41.10
2018-05-18T16:59:20.735Z,42.60
2018-05-18T17:01:49.634Z,42.50
2018-05-18T17:04:18.585Z,41.80
2018-05-18T17:06:47.996Z,42.20
2018-05-18T17:09:16.903Z,42.40
2018-05-18T17:11:46.622Z,42.50
2018-05-18T17:14:15.493Z,42.40
2018-05-18T17:16:45.211Z,42.90
2018-05-18T17:19:14.950Z,43.70
2018-05-18T17:21:43.837Z,43.60
2018-05-18T17:24:12.749Z,44.70
2018-05-18T17:26:41.666Z,44.00
2018-05-18T17:29:10.549Z,44.90
2018-05-18T17:31:39.451Z,44.10
2018-05-18T17:34:09.152Z,42.40
2018-05-18T17:36:38.023Z,42.70
2018-05-18T17:39:06.933Z,44.30
2018-05-18T17:41:35.846Z,44.80
2018-05-18T17:44:05.532Z,47.50
2018-05-18T17:46:34.684Z,47.40
2018-05-18T17:49:03.570Z,46.30
2018-05-18T17:51:32.589Z,48.00
2018-05-18T17:54:01.583Z,47.60
2018-05-18T17:56:30.514Z,47.80
2018-05-18T17:58:59.407Z,48.20
2018-05-18T18:01:28.312Z,50.10
2018-05-18T18:03:57.247Z,49.90
2018-05-18T18:06:26.228Z,48.90
2018-05-18T18:08:55.124Z,48.60
2018-05-18T18:11:24.029Z,50.00
2018-05-18T18:13:54.449Z,48.20
2018-05-18T18:16:23.367Z,48.20
2018-05-18T18:18:53.051Z,49.90
2018-05-18T18:21:22.747Z,49.60
2018-05-18T18:23:51.682Z,49.40
2018-05-18T18:26:21.316Z,50.60
2018-05-18T18:28:50.267Z,50.60
2018-05-18T18:31:19.153Z,50.80
2018-05-18T18:33:48.192Z,53.70
2018-05-18T18:36:17.149Z,55.80
2018-05-18T18:38:46.117Z,55.70
2018-05-18T18:41:15.057Z,56.80
2018-05-18T18:43:43.945Z,58.30
2018-05-18T18:46:12.859Z,58.60
2018-05-18T18:48:41.751Z,58.80
2018-05-18T18:51:10.669Z,59.70
2018-05-18T18:53:39.626Z,60.00
2018-05-18T18:56:08.541Z,61.40
2018-05-18T18:58:37.488Z,59.40
2018-05-18T19:01:06.394Z,59.70
2018-05-18T19:03:35.329Z,61.00
2018-05-18T19:06:04.315Z,63.20
2018-05-18T19:08:33.964Z,64.10
2018-05-18T19:11:02.871Z,64.00
2018-05-18T19:13:31.832Z,65.10
2018-05-18T19:16:00.727Z,66.20
2018-05-18T19:18:29.630Z,67.90
2018-05-18T19:20:58.515Z,68.20
2018-05-18T19:23:27.460Z,68.70
2018-05-18T19:25:57.408Z,70.10
2018-05-18T19:28:26.344Z,70.00
2018-05-18T19:30:55.313Z,71.20
2018-05-18T19:33:24.298Z,71.30
2018-05-18T19:35:53.311Z,72.40
2018-05-18T19:38:22.195Z,73.80
2018-05-18T19:40:51.182Z,74.60
2018-05-18T19:43:20.174Z,75.40
2018-05-18T19:45:49.086Z,75.80
2018-05-18T19:48:18.785Z,78.10
2018-05-18T19:50:47.767Z,78.10
2018-05-18T19:53:16.744Z,79.20
2018-05-18T19:55:45.649Z,79.70
2018-05-18T19:58:14.584Z,80.60
2018-05-18T20:00:43.514Z,80.70
2018-05-18T20:03:12.443Z,81.20
2018-05-18T20:05:42.125Z,82.80
2018-05-18T20:08:11.036Z,82.60
2018-05-18T20:10:40.711Z,82.80
2018-05-18T20:13:09.633Z,82.70
2018-05-18T20:15:39.343Z,84.00
2018-05-18T20:18:09.118Z,84.00
2018-05-18T20:20:38.021Z,84.00
2018-05-18T20:23:06.976Z,83.90
2018-05-18T20:25:35.895Z,84.40
2018-05-18T20:28:04.875Z,85.00
2018-05-18T20:30:33.816Z,85.60
2018-05-18T20:33:02.740Z,85.50
2018-05-18T20:35:31.712Z,86.10
2018-05-18T20:38:00.748Z,87.00
2018-05-18T20:40:30.463Z,87.20
2018-05-18T20:42:59.453Z,87.20
2018-05-18T20:45:29.942Z,86.40
2018-05-18T20:47:58.952Z,86.40
2018-05-18T20:50:27.864Z,87.20
2018-05-18T20:52:56.803Z,86.90
2018-05-18T20:55:25.760Z,87.10
2018-05-18T20:57:55.042Z,86.50
2018-05-18T21:00:24.163Z,86.50
2018-05-18T21:02:53.884Z,87.50
2018-05-18T21:05:23.768Z,88.10
2018-05-18T21:07:53.267Z,88.00
2018-05-18T21:10:22.239Z,87.60
2018-05-18T21:12:51.224Z,86.90
2018-05-18T21:15:20.216Z,86.50
2018-05-18T21:17:49.263Z,87.10
2018-05-18T21:20:19.042Z,87.20
2018-05-18T21:22:48.946Z,86.70
2018-05-18T21:25:17.922Z,86.60
2018-05-18T21:27:46.831Z,86.70
2018-05-18T21:30:15.788Z,86.90
2018-05-18T21:32:44.721Z,87.60
2018-05-18T21:35:13.666Z,87.40
2018-05-18T21:37:42.622Z,87.50
2018-05-18T21:40:11.560Z,87.80
2018-05-18T21:42:40.552Z,88.40
2018-05-18T21:45:09.524Z,88.50
2018-05-18T21:47:38.657Z,88.40
2018-05-18T21:50:07.636Z,89.10
2018-05-18T21:52:36.624Z,89.80
2018-05-18T21:55:05.641Z,90.10
2018-05-18T21:57:34.797Z,90.40
2018-05-18T22:00:03.696Z,90.60
2018-05-18T22:02:32.700Z,90.70
2018-05-18T22:05:01.803Z,90.60
2018-05-18T22:07:30.754Z,91.00
2018-05-18T22:09:59.712Z,91.00
2018-05-18T22:12:28.683Z,91.10
2018-05-18T22:14:57.605Z,91.10
2018-05-18T22:17:27.320Z,91.20
2018-05-18T22:19:56.308Z,91.20
2018-05-18T22:22:25.290Z,91.30
2018-05-18T22:24:54.975Z,91.50
2018-05-18T22:27:24.056Z,91.50
2018-05-18T22:29:52.987Z,91.60
2018-05-18T22:32:21.947Z,91.50
2018-05-18T22:34:52.411Z,91.70
2018-05-18T22:37:21.320Z,91.60
2018-05-18T22:39:50.266Z,91.60
2018-05-18T22:42:19.976Z,92.30
2018-05-18T22:44:49.671Z,92.30
2018-05-18T22:47:18.600Z,92.30
2018-05-18T22:49:47.522Z,92.30
2018-05-18T22:52:16.437Z,92.60
2018-05-18T22:54:45.350Z,92.60
2018-05-18T22:57:15.069Z,92.70
2018-05-18T22:59:44.834Z,92.70
2018-05-18T23:02:13.788Z,92.70
2018-05-18T23:04:42.694Z,92.80
2018-05-18T23:07:11.613Z,93.00
2018-05-18T23:09:40.575Z,93.20
2018-05-18T23:12:09.489Z,93.30
2018-05-18T23:14:38.368Z,93.50
2018-05-18T23:17:07.365Z,93.50
2018-05-18T23:19:36.242Z,93.70
2018-05-18T23:22:07.372Z,93.60
2018-05-18T23:24:36.337Z,93.70
2018-05-18T23:27:05.235Z,93.80
2018-05-18T23:29:34.180Z,93.40
2018-05-18T23:32:03.125Z,93.20
2018-05-18T23:34:32.088Z,93.20
2018-05-18T23:37:00.991Z,92.80
2018-05-18T23:39:29.952Z,92.60
2018-05-18T23:41:59.653Z,92.30
2018-05-18T23:44:28.575Z,92.30
2018-05-18T23:46:57.543Z,92.00
2018-05-18T23:49:26.480Z,91.70
2018-05-18T23:51:55.443Z,91.50
2018-05-18T23:54:24.604Z,91.50
2018-05-18T23:56:53.538Z,91.80
2018-05-18T23:59:22.522Z,91.60
